Time;durP1;ratioP1;P1;durP2;ratioP2;P2;SDS_P1;SDS_P2;PMS_P1;PMS_P2;Temp;Humidity;BMP_temperature;BMP_pressure;BME280_temperature;BME280_humidity;BME280_pressure;Samples;Min_cycle;Max_cycle;Signal;HPM_P1;HPM_P2
2023/05/19 00:01:55;;;;;;;12.30;3.40;;;;;;;10.70;75.02;101333.19;110532;1275;22184;-79
2023/05/19 00:04:26;;;;;;;14.00;2.90;;;;;;;10.70;75.02;101331.56;109289;1272;22514;-79
2023/05/19 00:06:59;;;;;;;11.70;2.30;;;;;;;10.68;75.07;101332.10;108020;1273;22466;-79
2023/05/19 00:09:31;;;;;;;9.40;2.30;;;;;;;10.66;74.92;101330.47;108004;1270;22937;-79
2023/05/19 00:12:02;;;;;;;9.70;2.10;;;;;;;10.66;75.01;101329.62;108051;1272;22553;-79
2023/05/19 00:14:34;;;;;;;9.70;2.10;;;;;;;10.63;75.04;101331.63;108127;1267;22527;-79
2023/05/19 00:17:06;;;;;;;10.10;2.20;;;;;;;10.63;75.22;101330.02;108001;1274;24188;-80
2023/05/19 00:19:38;;;;;;;9.60;2.40;;;;;;;10.62;75.17;101328.39;110514;1271;22342;-79
2023/05/19 00:22:08;;;;;;;11.20;2.30;;;;;;;10.60;75.09;101328.16;110557;1274;22297;-80
2023/05/19 00:24:39;;;;;;;13.60;2.30;;;;;;;10.58;75.29;101329.41;110522;1269;22274;-80
2023/05/19 00:27:10;;;;;;;9.30;2.10;;;;;;;10.56;75.39;101331.16;110504;1270;22209;-80
2023/05/19 00:29:41;;;;;;;10.00;2.30;;;;;;;10.52;75.43;101329.30;110535;1267;22842;-80
2023/05/19 00:32:12;;;;;;;13.50;2.20;;;;;;;10.48;75.66;101330.23;110514;1274;22189;-79
2023/05/19 00:34:43;;;;;;;10.10;2.20;;;;;;;10.43;75.65;101327.39;110498;1274;22228;-80
2023/05/19 00:37:13;;;;;;;13.30;2.30;;;;;;;10.39;75.76;101324.81;110574;1273;22206;-80
2023/05/19 00:39:44;;;;;;;11.80;2.40;;;;;;;10.37;75.77;101327.30;110541;1268;22231;-80
2023/05/19 00:42:16;;;;;;;16.80;2.90;;;;;;;10.32;75.82;101323.38;108947;1272;25440;-79
2023/05/19 00:44:46;;;;;;;14.50;3.20;;;;;;;10.29;76.05;101324.20;108038;1274;25469;-80
2023/05/19 00:47:17;;;;;;;12.20;2.50;;;;;;;10.27;76.11;101326.90;107976;1274;22622;-79
2023/05/19 00:49:48;;;;;;;8.40;2.10;;;;;;;10.25;76.14;101319.63;108010;1265;24190;-79
2023/05/19 00:52:19;;;;;;;12.20;2.00;;;;;;;10.24;76.20;101323.67;108087;1274;22623;-79
2023/05/19 00:54:51;;;;;;;10.20;2.10;;;;;;;10.22;76.42;101323.65;108011;1274;22528;-80
2023/05/19 00:57:22;;;;;;;10.50;2.10;;;;;;;10.19;76.47;101322.58;108100;1274;24217;-79
2023/05/19 00:59:53;;;;;;;7.20;1.50;;;;;;;10.18;76.57;101324.60;107997;1274;22536;-79
2023/05/19 01:02:23;;;;;;;13.20;2.40;;;;;;;10.15;76.61;101329.70;108079;1274;22480;-79
2023/05/19 01:04:56;;;;;;;9.60;1.90;;;;;;;10.14;76.82;101325.84;108041;1274;24212;-80
2023/05/19 01:07:28;;;;;;;8.60;2.00;;;;;;;10.11;76.86;101326.64;108027;1272;25016;-79
2023/05/19 01:09:58;;;;;;;9.40;1.80;;;;;;;10.09;77.17;101328.14;108058;1274;22553;-79
2023/05/19 01:12:31;;;;;;;10.30;2.00;;;;;;;10.05;77.27;101324.75;108100;1274;22593;-79
2023/05/19 01:15:02;;;;;;;8.40;1.80;;;;;;;10.01;77.43;101322.33;108078;1269;22498;-79
2023/05/19 01:17:41;;;;;;;10.10;2.10;;;;;;;9.99;77.43;101325.14;108613;1267;23449;-80
2023/05/19 01:20:20;;;;;;;11.60;2.20;;;;;;;9.97;77.76;101325.91;108545;1275;22511;-79
2023/05/19 01:23:23;;;;;;;6.90;1.80;;;;;;;9.96;77.60;101327.79;108530;1274;22576;-80
2023/05/19 01:26:27;;;;;;;13.20;2.60;;;;;;;9.95;77.74;101328.75;108486;1264;22843;-79
2023/05/19 01:29:16;;;;;;;11.80;1.90;;;;;;;9.96;77.81;101331.67;107946;1276;23262;-79
2023/05/19 01:31:49;;;;;;;13.30;2.70;;;;;;;9.95;78.08;101331.80;110083;1280;22324;-80
2023/05/19 01:34:21;;;;;;;7.70;1.80;;;;;;;9.95;77.84;101332.20;109196;1276;22539;-80
2023/05/19 01:36:54;;;;;;;10.50;1.80;;;;;;;9.96;77.95;101329.77;108049;1275;22639;-80
2023/05/19 01:39:26;;;;;;;8.70;1.70;;;;;;;9.96;77.86;101331.67;108069;1279;23920;-79
2023/05/19 01:41:58;;;;;;;10.20;1.80;;;;;;;9.95;78.13;101331.53;108110;1276;22769;-79
2023/05/19 01:44:31;;;;;;;8.20;1.50;;;;;;;9.92;78.28;101332.11;107989;1273;22495;-79
2023/05/19 01:47:02;;;;;;;9.70;1.80;;;;;;;9.89;78.36;101329.60;108019;1280;22549;-80
2023/05/19 01:49:33;;;;;;;7.00;1.90;;;;;;;9.88;78.31;101332.91;108226;1280;22559;-80
2023/05/19 01:52:04;;;;;;;10.70;2.40;;;;;;;9.87;78.78;101332.71;108037;1276;22553;-79
2023/05/19 01:54:35;;;;;;;11.20;1.80;;;;;;;9.84;78.52;101331.51;107955;1257;22564;-79
2023/05/19 01:57:20;;;;;;;10.70;1.80;;;;;;;9.85;78.76;101331.52;107790;1275;23739;-79
2023/05/19 02:00:04;;;;;;;9.70;1.60;;;;;;;9.84;78.59;101328.75;107993;1279;25352;-79
2023/05/19 02:02:43;;;;;;;10.60;2.10;;;;;;;9.85;78.62;101328.79;110006;1279;22383;-80
2023/05/19 02:05:27;;;;;;;9.30;1.80;;;;;;;9.84;78.72;101328.17;110095;1278;22238;-80
2023/05/19 02:08:06;;;;;;;9.90;1.90;;;;;;;9.79;78.77;101323.61;110431;1275;22202;-80
2023/05/19 02:10:42;;;;;;;9.20;2.20;;;;;;;9.77;78.99;101321.85;110544;1274;23372;-80
2023/05/19 02:13:16;;;;;;;10.30;2.00;;;;;;;9.76;78.89;101322.67;110524;1272;22157;-80
2023/05/19 02:15:48;;;;;;;8.30;2.30;;;;;;;9.77;78.98;101319.63;110555;1274;22129;-80
2023/05/19 02:18:20;;;;;;;8.80;1.90;;;;;;;9.77;79.06;101316.21;109049;1273;23611;-79
2023/05/19 02:20:51;;;;;;;10.30;1.80;;;;;;;9.74;79.30;101317.55;108094;1274;22590;-79
2023/05/19 02:23:22;;;;;;;12.30;2.00;;;;;;;9.73;79.17;101315.52;108069;1274;26520;-80
2023/05/19 02:25:53;;;;;;;8.00;2.00;;;;;;;9.72;79.35;101318.84;107978;1274;22518;-79
2023/05/19 02:28:27;;;;;;;8.70;1.80;;;;;;;9.68;79.40;101313.85;108092;1273;25446;-80
2023/05/19 02:30:57;;;;;;;11.30;2.00;;;;;;;9.65;79.58;101313.27;108047;1273;22556;-80
2023/05/19 02:33:29;;;;;;;9.20;1.80;;;;;;;9.61;79.79;101314.02;108044;1251;23304;-79
2023/05/19 02:36:00;;;;;;;10.70;2.30;;;;;;;9.55;79.98;101309.41;107968;1272;25604;-79
2023/05/19 02:38:31;;;;;;;9.80;1.90;;;;;;;9.51;80.01;101312.98;107960;1268;22574;-79
2023/05/19 02:41:02;;;;;;;10.30;2.30;;;;;;;9.49;80.20;101306.34;108043;1273;23021;-81
2023/05/19 02:43:33;;;;;;;8.70;2.40;;;;;;;9.48;80.32;101304.38;107991;1270;22789;-81
2023/05/19 02:46:03;;;;;;;11.20;2.30;;;;;;;9.50;80.52;101303.28;108575;1266;23776;-80
2023/05/19 02:48:34;;;;;;;10.20;2.30;;;;;;;9.50;80.49;101304.30;108646;1272;22627;-81
2023/05/19 02:51:06;;;;;;;9.40;2.30;;;;;;;9.52;80.67;101301.72;108577;1274;22593;-81
2023/05/19 02:53:37;;;;;;;11.10;2.40;;;;;;;9.51;80.79;101298.71;108479;1274;22503;-81
2023/05/19 02:56:08;;;;;;;10.00;2.20;;;;;;;9.51;80.75;101302.92;108365;1272;22649;-80
2023/05/19 02:58:41;;;;;;;9.90;2.50;;;;;;;9.50;80.95;101303.23;108529;1263;22751;-81
2023/05/19 03:01:12;;;;;;;8.90;2.10;;;;;;;9.47;81.00;101304.10;110583;1273;22207;-81
2023/05/19 03:03:43;;;;;;;10.40;2.30;;;;;;;9.45;81.22;101305.83;110544;1274;22260;-81
2023/05/19 03:06:16;;;;;;;14.10;2.90;;;;;;;9.47;81.30;101303.62;110600;1273;22887;-80
2023/05/19 03:08:47;;;;;;;12.50;3.50;;;;;;;9.46;81.59;101304.20;110691;1266;22160;-81
2023/05/19 03:11:18;;;;;;;8.70;2.20;;;;;;;9.43;81.72;101304.06;110359;1274;22550;-81
2023/05/19 03:13:49;;;;;;;10.90;2.70;;;;;;;9.42;81.59;101298.67;109265;1273;25039;-81
2023/05/19 03:16:20;;;;;;;10.30;2.90;;;;;;;9.45;81.89;101302.65;108622;1270;22695;-80
2023/05/19 03:18:51;;;;;;;12.40;3.10;;;;;;;9.44;81.82;101303.15;108674;1270;22551;-81
2023/05/19 03:21:22;;;;;;;16.30;3.50;;;;;;;9.47;81.96;101300.77;108655;1273;22573;-81
2023/05/19 03:23:53;;;;;;;14.80;3.60;;;;;;;9.48;82.16;101297.69;108356;1274;23952;-81
2023/05/19 03:26:25;;;;;;;10.30;3.10;;;;;;;9.50;82.23;101299.08;108525;1274;25293;-80
2023/05/19 03:28:56;;;;;;;9.70;3.00;;;;;;;9.51;82.46;101300.63;108521;1274;23249;-81
2023/05/19 03:31:26;;;;;;;13.80;4.00;;;;;;;9.51;82.53;101293.45;108516;1274;22516;-81
2023/05/19 03:33:57;;;;;;;22.00;4.10;;;;;;;9.52;82.66;101293.43;108565;1272;22508;-81
2023/05/19 03:36:30;;;;;;;12.90;3.50;;;;;;;9.53;82.68;101295.23;108541;1274;22551;-80
2023/05/19 03:39:01;;;;;;;12.80;4.10;;;;;;;9.53;83.01;101299.45;108571;1272;22637;-80
2023/05/19 03:41:32;;;;;;;19.30;4.20;;;;;;;9.54;82.99;101300.84;108538;1273;23484;-81
2023/05/19 03:44:03;;;;;;;17.20;4.20;;;;;;;9.56;82.89;101306.12;108652;1267;23289;-82
2023/05/19 03:46:33;;;;;;;13.50;4.20;;;;;;;9.59;82.86;101307.86;108636;1270;25633;-81
2023/05/19 03:49:04;;;;;;;13.10;3.80;;;;;;;9.60;83.07;101310.73;108600;1270;23262;-80
2023/05/19 03:51:35;;;;;;;10.80;3.90;;;;;;;9.58;83.15;101312.73;108494;1273;22552;-81
2023/05/19 03:54:07;;;;;;;11.30;3.80;;;;;;;9.60;83.36;101311.65;108530;1274;22540;-82
2023/05/19 03:56:42;;;;;;;13.50;4.80;;;;;;;9.62;83.68;101314.00;108439;1267;24196;-83
2023/05/19 03:59:13;;;;;;;17.20;4.00;;;;;;;9.61;83.49;101309.79;108598;1265;22565;-83
2023/05/19 04:01:43;;;;;;;12.40;4.00;;;;;;;9.63;83.84;101311.34;108771;1267;23114;-84
2023/05/19 04:04:14;;;;;;;14.30;4.00;;;;;;;9.64;83.83;101313.11;108700;1264;23398;-84
2023/05/19 04:06:45;;;;;;;17.40;4.10;;;;;;;9.67;83.99;101312.94;108732;1261;22553;-84
2023/05/19 04:09:18;;;;;;;13.30;3.50;;;;;;;9.69;83.94;101313.52;108750;1274;22595;-84
2023/05/19 04:11:50;;;;;;;10.10;3.20;;;;;;;9.70;84.05;101316.57;108753;1270;22465;-84
2023/05/19 04:14:21;;;;;;;14.80;4.20;;;;;;;9.73;84.12;101314.00;108773;1272;22645;-85
2023/05/19 04:16:53;;;;;;;12.70;3.60;;;;;;;9.76;84.16;101314.56;108622;1275;24178;-83
2023/05/19 04:19:23;;;;;;;14.20;4.30;;;;;;;9.78;84.14;101316.96;108667;1267;26495;-83
2023/05/19 04:21:54;;;;;;;10.90;2.90;;;;;;;9.80;84.18;101318.81;108728;1273;22547;-83
2023/05/19 04:24:25;;;;;;;12.60;3.60;;;;;;;9.83;84.00;101322.60;108662;1267;22587;-82
2023/05/19 04:26:56;;;;;;;10.10;2.80;;;;;;;9.88;84.22;101328.91;108693;1267;22549;-84
2023/05/19 04:29:28;;;;;;;9.70;2.70;;;;;;;9.90;84.02;101319.29;108732;1274;22476;-84
2023/05/19 04:31:59;;;;;;;16.70;3.20;;;;;;;9.93;84.02;101321.56;108806;1274;22770;-83
2023/05/19 04:34:30;;;;;;;10.30;2.70;;;;;;;9.98;83.94;101321.55;108892;1274;22531;-84
2023/05/19 04:37:01;;;;;;;12.50;2.20;;;;;;;10.01;84.08;101317.23;108638;1269;22527;-83
2023/05/19 04:39:31;;;;;;;11.80;2.40;;;;;;;10.03;83.75;101311.36;108526;1270;22517;-83
2023/05/19 04:42:02;;;;;;;9.20;2.80;;;;;;;10.06;83.87;101308.77;108486;1270;24234;-83
2023/05/19 04:44:33;;;;;;;13.30;2.40;;;;;;;10.08;83.65;101305.30;108655;1263;22479;-84
2023/05/19 04:47:04;;;;;;;12.80;2.70;;;;;;;10.11;83.64;101306.73;108646;1273;22637;-83
2023/05/19 04:49:49;;;;;;;;;;;;;;;;;;;;;
2023/05/19 04:52:21;;;;;;;9.20;2.40;;;;;;;10.21;83.95;101302.65;110506;1270;23238;-84
2023/05/19 04:54:51;;;;;;;12.20;2.30;;;;;;;10.23;83.73;101303.70;110533;1270;22285;-83
2023/05/19 04:57:22;;;;;;;8.90;1.80;;;;;;;10.25;83.74;101309.05;110539;1274;22169;-83
2023/05/19 04:59:58;;;;;;;11.80;2.90;;;;;;;10.27;83.57;101310.71;110575;1270;22260;-84
2023/05/19 05:02:30;;;;;;;7.90;1.70;;;;;;;10.31;83.54;101316.34;109327;1267;22476;-83
2023/05/19 05:05:01;;;;;;;10.50;1.70;;;;;;;10.32;83.24;101319.56;108669;1268;26523;-83
2023/05/19 05:07:32;;;;;;;11.20;2.20;;;;;;;10.31;83.11;101318.32;108736;1267;27162;-83
2023/05/19 05:10:03;;;;;;;11.70;2.50;;;;;;;10.33;83.19;101320.73;108505;1273;22541;-83
2023/05/19 05:12:35;;;;;;;9.30;2.40;;;;;;;10.35;83.22;101315.79;108756;1272;22563;-83
2023/05/19 05:15:09;;;;;;;9.10;1.80;;;;;;;10.37;83.22;101318.50;108631;1264;22517;-83
2023/05/19 05:17:41;;;;;;;10.70;2.90;;;;;;;10.39;83.07;101320.35;108732;1270;25407;-83
2023/05/19 05:20:14;;;;;;;8.60;1.90;;;;;;;10.41;83.09;101320.60;108652;1267;25377;-83
2023/05/19 05:22:45;;;;;;;13.60;1.90;;;;;;;10.42;83.05;101317.61;108625;1267;25960;-83
2023/05/19 05:25:19;;;;;;;12.50;2.80;;;;;;;10.43;83.12;101316.60;108715;1270;22606;-83
2023/05/19 05:27:49;;;;;;;17.80;2.70;;;;;;;10.46;83.30;101319.86;108558;1267;22576;-83
2023/05/19 05:30:20;;;;;;;9.60;2.50;;;;;;;10.48;83.00;101325.12;108511;1267;22636;-84
2023/05/19 05:32:51;;;;;;;9.00;2.20;;;;;;;10.50;83.03;101330.02;108463;1267;22551;-84
2023/05/19 05:35:23;;;;;;;7.80;1.90;;;;;;;10.53;83.31;101326.23;108517;1267;22552;-83
2023/05/19 05:37:55;;;;;;;12.50;2.10;;;;;;;10.56;82.98;101325.83;108542;1267;22976;-84
2023/05/19 05:40:25;;;;;;;9.90;2.80;;;;;;;10.58;83.12;101329.23;108593;1267;23655;-84
2023/05/19 05:42:57;;;;;;;10.70;2.10;;;;;;;10.58;82.81;101328.20;108667;1267;22511;-83
2023/05/19 05:45:28;;;;;;;11.70;2.00;;;;;;;10.60;83.03;101324.40;108607;1266;23144;-83
2023/05/19 05:48:00;;;;;;;10.30;2.70;;;;;;;10.63;83.13;101321.16;108630;1270;22541;-84
2023/05/19 05:50:31;;;;;;;9.70;2.10;;;;;;;10.68;83.09;101326.29;108711;1267;23679;-84
2023/05/19 05:53:03;;;;;;;7.70;2.00;;;;;;;10.68;82.84;101320.59;108713;1267;22639;-84
2023/05/19 05:55:35;;;;;;;10.70;3.00;;;;;;;10.71;82.86;101320.58;108405;1274;22586;-83
2023/05/19 05:58:10;;;;;;;9.30;2.40;;;;;;;10.76;82.89;101318.31;108356;1274;22549;-83
2023/05/19 06:00:42;;;;;;;9.10;2.20;;;;;;;10.80;82.66;101317.14;108435;1267;22552;-84
2023/05/19 06:03:13;;;;;;;10.50;2.50;;;;;;;10.84;82.81;101322.66;108422;1270;25411;-83
2023/05/19 06:05:44;;;;;;;14.10;2.10;;;;;;;10.84;82.78;101322.32;108453;1273;25469;-83
2023/05/19 06:08:16;;;;;;;11.10;2.60;;;;;;;10.86;82.88;101324.56;108437;1274;24226;-83
2023/05/19 06:10:46;;;;;;;11.30;2.20;;;;;;;10.88;82.88;101325.52;108428;1254;23978;-83
2023/05/19 06:13:21;;;;;;;12.70;2.60;;;;;;;10.92;82.73;101328.58;108408;1270;22533;-83
2023/05/19 06:15:53;;;;;;;7.30;2.40;;;;;;;10.96;82.70;101332.58;108389;1270;22626;-83
2023/05/19 06:18:23;;;;;;;9.80;2.50;;;;;;;10.99;82.66;101336.84;108439;1274;23013;-83
2023/05/19 06:20:54;;;;;;;12.00;2.70;;;;;;;11.02;82.64;101338.58;108445;1267;22483;-83
2023/05/19 06:23:27;;;;;;;15.10;3.10;;;;;;;11.04;82.49;101339.13;108331;1270;26544;-83
2023/05/19 06:25:58;;;;;;;13.30;3.20;;;;;;;11.06;82.46;101343.77;108438;1272;22721;-83
2023/05/19 06:28:30;;;;;;;13.80;2.60;;;;;;;11.07;82.68;101345.16;108414;1270;22615;-83
2023/05/19 06:31:01;;;;;;;9.90;2.90;;;;;;;11.08;82.51;101340.98;108377;1270;22576;-83
2023/05/19 06:33:32;;;;;;;11.40;2.50;;;;;;;11.08;82.51;101341.36;108466;1274;24211;-83
2023/05/19 06:36:03;;;;;;;9.20;2.30;;;;;;;11.09;82.55;101341.09;108441;1266;24198;-83
2023/05/19 06:38:33;;;;;;;12.20;2.90;;;;;;;11.11;82.32;101344.91;108338;1264;22611;-83
2023/05/19 06:41:04;;;;;;;10.90;2.70;;;;;;;11.13;82.37;101349.98;108351;1273;22517;-83
2023/05/19 06:43:35;;;;;;;16.70;7.10;;;;;;;11.13;82.25;101351.27;108337;1270;25422;-83
2023/05/19 06:46:06;;;;;;;11.10;2.80;;;;;;;11.13;82.14;101352.45;108734;1270;25457;-83
2023/05/19 06:48:37;;;;;;;10.60;2.20;;;;;;;11.13;82.08;101353.56;108576;1270;22518;-83
2023/05/19 06:51:09;;;;;;;14.20;2.70;;;;;;;11.16;82.05;101352.27;108636;1270;22563;-80
2023/05/19 06:53:39;;;;;;;10.10;3.00;;;;;;;11.17;82.11;101353.25;108433;1267;22544;-80
2023/05/19 06:56:10;;;;;;;9.80;2.70;;;;;;;11.18;82.14;101352.41;108581;1267;22542;-82
2023/05/19 06:58:41;;;;;;;15.80;6.00;;;;;;;11.20;82.01;101350.75;108678;1266;25341;-80
2023/05/19 07:01:13;;;;;;;14.80;3.00;;;;;;;11.21;82.11;101353.52;108560;1274;22472;-81
2023/05/19 07:03:45;;;;;;;10.50;2.00;;;;;;;11.22;82.05;101354.73;108577;1267;22537;-83
2023/05/19 07:06:19;;;;;;;11.20;2.40;;;;;;;11.24;82.05;101354.98;110656;1270;22299;-81
2023/05/19 07:08:50;;;;;;;13.60;2.70;;;;;;;11.28;81.99;101356.27;109738;1267;22560;-83
2023/05/19 07:11:21;;;;;;;10.90;1.80;;;;;;;11.31;81.95;101353.99;108793;1270;27385;-82
2023/05/19 07:13:52;;;;;;;11.50;2.40;;;;;;;11.36;82.12;101353.10;108669;1274;23233;-82
2023/05/19 07:16:22;;;;;;;9.10;2.40;;;;;;;11.38;81.99;101355.33;108771;1274;22664;-82
2023/05/19 07:18:53;;;;;;;7.90;1.90;;;;;;;11.40;81.81;101351.83;108633;1266;22573;-82
2023/05/19 07:21:24;;;;;;;9.10;1.70;;;;;;;11.42;81.83;101355.66;108571;1267;25977;-82
2023/05/19 07:23:55;;;;;;;11.20;2.10;;;;;;;11.43;81.69;101354.27;108553;1271;22522;-83
2023/05/19 07:26:26;;;;;;;8.70;2.30;;;;;;;11.45;81.72;101353.94;108473;1271;25297;-83
2023/05/19 07:28:57;;;;;;;10.40;2.20;;;;;;;11.50;81.65;101356.73;108515;1274;24117;-82
2023/05/19 07:31:28;;;;;;;9.50;1.90;;;;;;;11.54;81.90;101357.02;108588;1270;25294;-82
2023/05/19 07:34:00;;;;;;;11.00;2.10;;;;;;;11.57;81.63;101360.89;108403;1270;24216;-82
2023/05/19 07:36:31;;;;;;;10.00;1.40;;;;;;;11.60;81.44;101361.73;108365;1270;22544;-82
2023/05/19 07:39:02;;;;;;;6.60;1.30;;;;;;;11.62;81.29;101355.29;108312;1267;22627;-82
2023/05/19 07:41:32;;;;;;;11.20;1.70;;;;;;;11.64;81.32;101356.64;108425;1274;22558;-82
2023/05/19 07:44:06;;;;;;;6.50;1.60;;;;;;;11.67;81.44;101357.75;108474;1274;22517;-82
2023/05/19 07:46:37;;;;;;;5.40;1.20;;;;;;;11.70;81.21;101358.34;108552;1271;23365;-82
2023/05/19 07:49:08;;;;;;;8.90;1.10;;;;;;;11.73;80.95;101360.36;108685;1270;22565;-82
2023/05/19 07:51:40;;;;;;;3.40;0.90;;;;;;;11.77;80.83;101359.10;108604;1274;22452;-82
2023/05/19 07:54:11;;;;;;;4.40;1.00;;;;;;;11.78;80.62;101362.16;108609;1274;22504;-82
2023/05/19 07:56:42;;;;;;;6.60;1.30;;;;;;;11.79;80.24;101361.98;108541;1267;22646;-82
2023/05/19 07:59:13;;;;;;;5.30;1.20;;;;;;;11.79;80.07;101362.70;108456;1274;22542;-82
2023/05/19 08:01:44;;;;;;;9.10;1.30;;;;;;;11.80;80.11;101361.30;108590;1274;23991;-82
2023/05/19 08:04:16;;;;;;;6.30;1.30;;;;;;;11.82;80.25;101359.23;108619;1270;23266;-82
2023/05/19 08:06:47;;;;;;;6.40;1.30;;;;;;;11.85;80.24;101358.55;108513;1274;22643;-80
2023/05/19 08:09:18;;;;;;;6.60;1.20;;;;;;;11.87;80.02;101361.33;108399;1267;25287;-82
2023/05/19 08:11:49;;;;;;;7.40;1.50;;;;;;;11.91;79.93;101363.33;108441;1251;22598;-82
2023/05/19 08:14:21;;;;;;;8.70;1.70;;;;;;;11.93;79.79;101361.16;108428;1274;22565;-83
2023/05/19 08:16:52;;;;;;;8.40;1.70;;;;;;;11.95;79.76;101356.99;108573;1251;24266;-82
2023/05/19 08:19:23;;;;;;;8.70;1.70;;;;;;;11.97;79.65;101351.47;108639;1266;22570;-81
2023/05/19 08:21:54;;;;;;;6.20;1.70;;;;;;;11.98;79.52;101354.43;108560;1274;27421;-81
2023/05/19 08:24:25;;;;;;;5.90;1.40;;;;;;;11.98;79.70;101356.17;108497;1266;22556;-82
2023/05/19 08:26:56;;;;;;;10.90;1.60;;;;;;;11.99;79.50;101353.88;108575;1270;23958;-82
2023/05/19 08:29:27;;;;;;;7.70;1.70;;;;;;;12.00;79.53;101349.61;108405;1266;22479;-81
2023/05/19 08:31:59;;;;;;;7.00;1.50;;;;;;;11.99;79.31;101350.92;108438;1270;22527;-82
2023/05/19 08:34:33;;;;;;;5.90;1.30;;;;;;;12.01;79.39;101347.25;108584;1266;22545;-82
2023/05/19 08:37:03;;;;;;;6.10;1.30;;;;;;;12.05;79.48;101349.37;108599;1270;22552;-82
2023/05/19 08:39:35;;;;;;;9.80;1.70;;;;;;;12.11;79.45;101347.15;108492;1267;22517;-82
2023/05/19 08:42:08;;;;;;;6.70;1.60;;;;;;;12.16;79.39;101349.88;108413;1266;22522;-82
2023/05/19 08:44:41;;;;;;;9.30;1.90;;;;;;;12.21;79.03;101348.51;109627;1267;23282;-82
2023/05/19 08:47:14;;;;;;;8.00;1.40;;;;;;;12.24;78.95;101352.06;108381;1274;23888;-81
2023/05/19 08:49:53;;;;;;;10.90;1.60;;;;;;;12.23;78.61;101350.58;108511;1270;22545;-82
2023/05/19 08:52:32;;;;;;;7.10;1.70;;;;;;;12.24;78.58;101351.47;110556;1267;22151;-82
2023/05/19 08:55:09;;;;;;;7.40;1.80;;;;;;;12.28;78.71;101351.58;109819;1266;22523;-81
2023/05/19 08:57:43;;;;;;;8.40;1.60;;;;;;;12.34;78.49;101352.11;108506;1266;22640;-82
2023/05/19 09:00:16;;;;;;;10.20;2.30;;;;;;;12.40;78.67;101343.94;108576;1263;24241;-82
2023/05/19 09:02:47;;;;;;;11.90;1.50;;;;;;;12.46;78.72;101347.48;108391;1267;22566;-81
2023/05/19 09:05:20;;;;;;;8.20;1.90;;;;;;;12.49;78.48;101345.46;108618;1273;22604;-82
2023/05/19 09:07:51;;;;;;;8.40;1.90;;;;;;;12.51;78.21;101343.60;108502;1267;22514;-82
2023/05/19 09:10:21;;;;;;;10.20;1.80;;;;;;;12.54;78.28;101345.48;108443;1274;22525;-82
2023/05/19 09:12:53;;;;;;;10.40;1.70;;;;;;;12.57;78.17;101343.58;108241;1274;22528;-82
2023/05/19 09:15:27;;;;;;;9.10;1.80;;;;;;;12.59;78.33;101348.62;108390;1270;23171;-81
2023/05/19 09:18:08;;;;;;;8.00;2.00;;;;;;;12.61;78.05;101346.63;108470;1270;26528;-82
2023/05/19 09:20:44;;;;;;;12.40;2.50;;;;;;;12.60;77.89;101349.27;110554;1267;22184;-82
2023/05/19 09:23:17;;;;;;;9.70;2.00;;;;;;;12.60;77.54;101346.46;109254;1266;22536;-82
2023/05/19 09:25:52;;;;;;;7.20;1.70;;;;;;;12.61;77.43;101347.98;108428;1267;22521;-82
2023/05/19 09:28:29;;;;;;;8.50;1.60;;;;;;;12.61;77.47;101344.39;108407;1274;22560;-82
2023/05/19 09:31:04;;;;;;;8.10;1.70;;;;;;;12.64;77.49;101342.80;108375;1254;22598;-81
2023/05/19 09:33:36;;;;;;;8.00;1.60;;;;;;;12.67;77.51;101343.60;108468;1266;22559;-82
2023/05/19 09:36:09;;;;;;;8.10;1.60;;;;;;;12.73;77.54;101338.94;108599;1266;22790;-82
2023/05/19 09:38:41;;;;;;;13.20;1.90;;;;;;;12.81;77.63;101334.44;108489;1267;22556;-81
2023/05/19 09:41:14;;;;;;;8.40;1.60;;;;;;;12.87;77.26;101335.02;108357;1274;25246;-81
2023/05/19 09:43:55;;;;;;;12.10;1.90;;;;;;;12.91;76.92;101330.67;108457;1267;22825;-81
2023/05/19 09:46:27;;;;;;;;;;;;;;;12.97;76.70;101328.11;108321;1270;22553;-82
2023/05/19 09:49:00;;;;;;;8.60;2.10;;;;;;;12.99;76.48;101321.35;108392;1274;23242;-82
2023/05/19 09:51:31;;;;;;;14.70;2.30;;;;;;;13.08;76.86;101328.77;108537;1266;22547;-81
2023/05/19 09:54:06;;;;;;;10.30;2.60;;;;;;;13.14;76.34;101326.30;108547;1266;25434;-81
2023/05/19 09:56:39;;;;;;;14.20;2.90;;;;;;;13.21;76.56;101320.92;108487;1250;22581;-81
2023/05/19 09:59:11;;;;;;;8.40;2.30;;;;;;;13.28;76.18;101316.36;108556;1274;25713;-81
2023/05/19 10:01:45;;;;;;;14.60;3.00;;;;;;;13.32;76.01;101315.83;108540;1274;22565;-81
2023/05/19 10:04:18;;;;;;;12.40;2.70;;;;;;;13.34;75.98;101315.75;108543;1266;24237;-81
2023/05/19 10:06:52;;;;;;;13.00;3.80;;;;;;;13.29;75.35;101316.16;109437;1270;23781;-81
2023/05/19 10:09:27;;;;;;;12.50;3.10;;;;;;;13.22;75.45;101311.41;108460;1270;22639;-82
2023/05/19 10:11:59;;;;;;;15.40;3.10;;;;;;;13.21;75.75;101312.85;110512;1274;22207;-82
2023/05/19 10:14:30;;;;;;;11.80;2.60;;;;;;;13.20;75.86;101309.45;110527;1270;22666;-82
2023/05/19 10:17:01;;;;;;;10.70;2.50;;;;;;;13.20;75.70;101306.07;110530;1270;22256;-82
2023/05/19 10:19:31;;;;;;;12.70;2.80;;;;;;;13.23;75.42;101309.33;109589;1267;23397;-82
2023/05/19 10:22:02;;;;;;;12.50;2.40;;;;;;;13.23;75.46;101308.98;108524;1274;24301;-82
2023/05/19 10:24:33;;;;;;;16.40;2.40;;;;;;;13.27;75.54;101305.20;108429;1267;22643;-82
2023/05/19 10:27:08;;;;;;;14.30;2.70;;;;;;;13.30;75.31;101304.73;108564;1269;22587;-81
2023/05/19 10:29:45;;;;;;;6.90;1.90;;;;;;;13.35;75.64;101302.87;108465;1267;22532;-82
2023/05/19 10:32:19;;;;;;;8.30;1.70;;;;;;;13.42;75.18;101303.34;108619;1267;22525;-81
2023/05/19 10:35:20;;;;;;;8.70;1.90;;;;;;;13.41;74.83;101298.92;108456;1267;22636;-81
2023/05/19 10:37:57;;;;;;;10.60;1.80;;;;;;;13.39;75.02;101296.13;110541;1266;23032;-82
2023/05/19 10:40:34;;;;;;;12.20;2.10;;;;;;;13.38;74.80;101296.88;110526;1266;22352;-82
2023/05/19 10:43:15;;;;;;;8.70;2.00;;;;;;;13.38;74.89;101294.23;110539;1274;22225;-82
2023/05/19 10:45:51;;;;;;;16.80;2.20;;;;;;;13.38;74.66;101293.95;109345;1273;24241;-82
2023/05/19 10:48:22;;;;;;;10.40;2.00;;;;;;;13.34;74.77;101294.36;108574;1270;22557;-82
2023/05/19 10:50:56;;;;;;;8.60;2.00;;;;;;;13.33;74.82;101298.55;108509;1267;22614;-82
2023/05/19 10:53:36;;;;;;;11.00;2.00;;;;;;;13.35;74.63;101301.95;108554;1267;22646;-82
2023/05/19 10:56:09;;;;;;;10.00;2.20;;;;;;;13.35;75.07;101305.27;108561;1266;22545;-82
2023/05/19 10:58:49;;;;;;;9.00;1.80;;;;;;;13.38;74.96;101306.56;108566;1267;22540;-82
2023/05/19 11:01:23;;;;;;;9.00;2.00;;;;;;;13.44;75.12;101307.77;108665;1274;22523;-81
2023/05/19 11:03:56;;;;;;;11.60;2.10;;;;;;;13.46;74.68;101308.77;108654;1274;22633;-82
2023/05/19 11:06:34;;;;;;;5.90;1.70;;;;;;;13.42;74.50;101310.17;108364;1266;22542;-82
2023/05/19 11:09:14;;;;;;;7.20;1.80;;;;;;;13.38;74.63;101311.80;108300;1267;22573;-81
2023/05/19 11:11:49;;;;;;;11.90;2.30;;;;;;;13.36;74.74;101308.05;108328;1266;22890;-82
2023/05/19 11:14:22;;;;;;;8.50;2.00;;;;;;;13.38;74.83;101306.41;108468;1274;24234;-81
2023/05/19 11:16:56;;;;;;;8.90;1.80;;;;;;;13.39;74.69;101304.70;108403;1271;22570;-82
2023/05/19 11:19:30;;;;;;;9.50;1.90;;;;;;;13.39;74.59;101303.11;108519;1267;22662;-82
2023/05/19 11:22:11;;;;;;;8.30;2.20;;;;;;;13.36;74.40;101304.28;108482;1272;22516;-82
2023/05/19 11:24:48;;;;;;;9.70;2.20;;;;;;;13.35;74.46;101303.59;108555;1273;22641;-82
2023/05/19 11:27:21;;;;;;;11.40;2.20;;;;;;;13.37;74.62;101304.73;108517;1270;24241;-82
2023/05/19 11:29:53;;;;;;;12.00;2.40;;;;;;;13.30;74.70;101300.40;108414;1270;23808;-81
2023/05/19 11:32:29;;;;;;;10.20;2.00;;;;;;;13.24;74.67;101300.80;108481;1270;24308;-82
2023/05/19 11:35:01;;;;;;;11.30;2.80;;;;;;;13.18;74.73;101301.87;108497;1263;22483;-82
2023/05/19 11:37:35;;;;;;;9.40;2.60;;;;;;;13.15;75.01;101300.88;108560;1270;22542;-82
2023/05/19 11:40:08;;;;;;;7.00;2.40;;;;;;;13.14;75.08;101298.16;108523;1270;22531;-82
2023/05/19 11:42:39;;;;;;;11.20;2.70;;;;;;;13.16;75.22;101304.63;108662;1266;23347;-82